createdAt,value
2019-03-04T00:01:10.549Z,92.40
2019-03-04T00:03:41.473Z,92.40
2019-03-04T00:06:12.171Z,92.50
2019-03-04T00:08:42.943Z,92.30
2019-03-04T00:11:13.702Z,92.30
2019-03-04T00:13:44.520Z,92.10
2019-03-04T00:16:15.284Z,92.20
2019-03-04T00:18:46.071Z,92.00
2019-03-04T00:21:16.851Z,91.90
2019-03-04T00:23:47.542Z,91.80
2019-03-04T00:26:18.320Z,91.70
2019-03-04T00:28:49.215Z,91.80
2019-03-04T00:31:19.991Z,91.80
2019-03-04T00:33:50.677Z,91.60
2019-03-04T00:36:21.480Z,91.60
2019-03-04T00:38:52.136Z,91.60
2019-03-04T00:41:22.927Z,91.50
2019-03-04T00:43:53.726Z,91.60
2019-03-04T00:46:24.582Z,91.50
2019-03-04T00:48:55.184Z,91.40
2019-03-04T00:51:26.050Z,91.50
2019-03-04T00:53:56.738Z,91.30
2019-03-04T00:56:27.551Z,91.20
2019-03-04T00:58:58.517Z,91.10
2019-03-04T01:01:29.403Z,91.20
2019-03-04T01:04:00.123Z,91.20
2019-03-04T01:06:30.896Z,91.20
2019-03-04T01:09:01.594Z,91.10
2019-03-04T01:11:34.188Z,91.00
2019-03-04T01:14:05.067Z,91.10
2019-03-04T01:16:36.016Z,91.00
2019-03-04T01:19:06.726Z,91.30
2019-03-04T01:21:37.524Z,91.10
2019-03-04T01:24:08.198Z,91.30
2019-03-04T01:26:38.998Z,91.30
2019-03-04T01:29:09.778Z,91.40
2019-03-04T01:31:40.566Z,91.60
2019-03-04T01:34:11.261Z,91.20
2019-03-04T01:36:43.008Z,91.30
2019-03-04T01:41:43.911Z,90.90
2019-03-04T01:44:14.681Z,91.20
2019-03-04T01:46:45.365Z,91.10
2019-03-04T01:49:17.187Z,91.10
2019-03-04T01:51:48.063Z,91.20
2019-03-04T01:54:18.780Z,91.00
2019-03-04T01:56:49.792Z,90.90
2019-03-04T01:59:20.643Z,90.90
2019-03-04T02:01:51.416Z,90.80
2019-03-04T02:04:22.300Z,91.00
2019-03-04T02:06:53.065Z,90.90
2019-03-04T02:09:24.050Z,90.90
2019-03-04T02:11:54.858Z,90.60
2019-03-04T02:14:25.571Z,90.70
2019-03-04T02:16:56.514Z,90.70
2019-03-04T02:19:27.477Z,90.70
2019-03-04T02:21:58.589Z,90.90
2019-03-04T02:24:29.285Z,90.80
2019-03-04T02:27:00.693Z,90.90
2019-03-04T02:29:31.477Z,90.90
2019-03-04T02:32:02.258Z,90.60
2019-03-04T02:34:32.964Z,90.60
2019-03-04T02:37:03.722Z,90.50
2019-03-04T02:39:34.512Z,90.40
2019-03-04T02:42:05.240Z,90.40
2019-03-04T02:44:36.229Z,90.40
2019-03-04T02:47:06.982Z,90.20
2019-03-04T02:49:37.747Z,90.40
2019-03-04T02:52:08.599Z,90.10
2019-03-04T02:54:39.352Z,90.00
2019-03-04T02:57:10.307Z,90.00
2019-03-04T02:59:41.098Z,90.30
2019-03-04T03:02:11.868Z,89.90
2019-03-04T03:04:42.660Z,90.10
2019-03-04T03:07:13.449Z,89.90
2019-03-04T03:09:44.134Z,90.00
2019-03-04T03:12:15.050Z,90.00
2019-03-04T03:14:45.798Z,90.00
2019-03-04T03:17:16.757Z,90.00
2019-03-04T03:19:47.810Z,90.10
2019-03-04T03:22:18.604Z,90.10
2019-03-04T03:24:50.312Z,90.10
2019-03-04T03:27:22.378Z,90.00
2019-03-04T03:29:53.156Z,90.20
2019-03-04T03:32:24.085Z,90.20
2019-03-04T03:34:55.048Z,90.20
2019-03-04T03:37:27.309Z,90.20
2019-03-04T03:39:58.061Z,90.10
2019-03-04T03:42:28.861Z,90.20
2019-03-04T03:44:59.801Z,90.30
2019-03-04T03:47:30.513Z,90.30
2019-03-04T03:50:01.200Z,90.20
2019-03-04T03:52:32.012Z,90.20
2019-03-04T03:55:02.778Z,90.40
2019-03-04T03:57:33.935Z,90.40
2019-03-04T04:00:05.639Z,90.50
2019-03-04T04:02:36.437Z,90.40
2019-03-04T04:05:07.363Z,90.40
2019-03-04T04:07:38.133Z,90.60
2019-03-04T04:10:10.746Z,90.40
2019-03-04T04:12:41.859Z,90.50
2019-03-04T04:15:12.620Z,90.40
2019-03-04T04:17:43.531Z,90.50
2019-03-04T04:20:14.290Z,90.50
2019-03-04T04:22:45.077Z,90.90
2019-03-04T04:25:16.274Z,90.80
2019-03-04T04:27:47.050Z,90.80
2019-03-04T04:30:19.269Z,91.00
2019-03-04T04:32:50.081Z,91.00
2019-03-04T04:35:20.861Z,91.00
2019-03-04T04:37:51.658Z,90.90
2019-03-04T04:40:22.454Z,90.90
2019-03-04T04:42:53.389Z,91.00
2019-03-04T04:45:24.215Z,91.00
2019-03-04T04:47:55.014Z,91.00
2019-03-04T04:50:26.095Z,91.00
2019-03-04T04:52:57.020Z,91.10
2019-03-04T04:55:27.725Z,91.10
2019-03-04T04:57:58.516Z,91.10
2019-03-04T05:00:31.172Z,91.00
2019-03-04T05:03:01.785Z,91.10
2019-03-04T05:05:32.405Z,91.10
2019-03-04T05:08:03.221Z,91.10
2019-03-04T05:10:34.275Z,91.20
2019-03-04T05:13:05.205Z,91.10
2019-03-04T05:15:35.845Z,91.20
2019-03-04T05:18:06.721Z,91.20
2019-03-04T05:20:37.423Z,91.20
2019-03-04T05:23:08.227Z,91.20
2019-03-04T05:25:38.965Z,91.10
2019-03-04T05:28:09.825Z,91.10
2019-03-04T05:30:40.788Z,91.10
2019-03-04T05:33:12.272Z,91.00
2019-03-04T05:35:43.057Z,90.90
2019-03-04T05:38:14.027Z,90.90
2019-03-04T05:40:46.994Z,90.80
2019-03-04T05:43:17.742Z,90.70
2019-03-04T05:45:48.432Z,90.80
2019-03-04T05:48:19.129Z,90.70
2019-03-04T05:50:49.904Z,90.70
2019-03-04T05:53:20.690Z,90.70
2019-03-04T05:55:51.553Z,90.80
2019-03-04T05:58:22.557Z,90.70
2019-03-04T06:01:22.829Z,90.60
2019-03-04T06:03:54.825Z,90.60
2019-03-04T06:06:43.684Z,90.60
2019-03-04T06:09:15.748Z,90.60
2019-03-04T06:11:46.704Z,90.60
2019-03-04T06:14:17.629Z,90.80
2019-03-04T06:16:48.428Z,91.30
2019-03-04T06:19:19.400Z,91.40
2019-03-04T06:21:50.184Z,91.60
2019-03-04T06:24:21.924Z,91.70
2019-03-04T06:26:52.696Z,91.70
2019-03-04T06:29:23.634Z,91.80
2019-03-04T06:31:54.542Z,91.70
2019-03-04T06:34:25.503Z,91.80
2019-03-04T06:36:57.501Z,91.60
2019-03-04T06:39:28.305Z,91.30
2019-03-04T06:42:01.234Z,91.10
2019-03-04T06:44:32.234Z,90.90
2019-03-04T06:47:03.244Z,90.70
2019-03-04T06:49:34.125Z,90.40
2019-03-04T06:52:05.219Z,90.40
2019-03-04T06:55:20.237Z,90.30
2019-03-04T06:57:52.589Z,90.00
2019-03-04T07:01:15.890Z,89.90
2019-03-04T07:03:56.109Z,89.80
2019-03-04T07:06:27.068Z,89.50
2019-03-04T07:09:18.498Z,89.10
2019-03-04T07:11:55.472Z,88.60
2019-03-04T07:14:27.426Z,88.10
2019-03-04T07:16:58.321Z,88.50
2019-03-04T07:19:31.225Z,88.70
2019-03-04T07:22:02.144Z,88.20
2019-03-04T07:24:33.119Z,88.30
2019-03-04T07:27:04.050Z,88.20
2019-03-04T07:29:35.014Z,88.00
2019-03-04T07:32:05.898Z,87.70
2019-03-04T07:34:36.760Z,87.50
2019-03-04T07:37:07.524Z,87.40
2019-03-04T07:39:38.605Z,87.20
2019-03-04T07:42:09.371Z,87.10
2019-03-04T07:44:40.225Z,87.20
2019-03-04T07:47:10.907Z,86.70
2019-03-04T07:49:41.987Z,87.00
2019-03-04T07:52:12.750Z,87.00
2019-03-04T07:54:43.622Z,86.60
2019-03-04T07:57:14.533Z,86.10
2019-03-04T07:59:45.528Z,86.20
2019-03-04T08:02:16.298Z,86.80
2019-03-04T08:04:47.050Z,86.00
2019-03-04T08:07:40.231Z,86.00
2019-03-04T08:10:42.878Z,86.10
2019-03-04T08:13:29.617Z,86.00
2019-03-04T08:16:00.759Z,85.80
2019-03-04T08:18:31.697Z,85.20
2019-03-04T08:21:02.502Z,85.70
2019-03-04T08:23:33.394Z,85.40
2019-03-04T08:26:04.175Z,85.50
2019-03-04T08:28:35.262Z,85.60
2019-03-04T08:31:07.317Z,85.20
2019-03-04T08:33:38.402Z,85.40
2019-03-04T08:36:09.537Z,85.40
2019-03-04T08:38:40.373Z,85.40
2019-03-04T08:41:11.325Z,85.30
2019-03-04T08:43:42.070Z,84.60
2019-03-04T08:46:12.733Z,84.40
2019-03-04T08:48:43.406Z,84.30
2019-03-04T08:51:14.283Z,84.00
2019-03-04T08:53:45.146Z,83.50
2019-03-04T08:56:16.046Z,82.80
2019-03-04T08:58:46.834Z,82.80
2019-03-04T09:01:17.614Z,82.80
2019-03-04T09:03:48.307Z,82.60
2019-03-04T09:06:19.310Z,82.60
2019-03-04T09:08:50.000Z,82.20
2019-03-04T09:11:20.839Z,81.20
2019-03-04T09:13:51.732Z,81.60
2019-03-04T09:16:22.723Z,81.40
2019-03-04T09:18:53.414Z,81.00
2019-03-04T09:21:24.215Z,80.40
2019-03-04T09:23:54.896Z,80.70
2019-03-04T09:29:06.022Z,80.10
2019-03-04T09:31:36.837Z,79.10
2019-03-04T09:34:07.539Z,79.60
2019-03-04T09:36:39.365Z,79.40
2019-03-04T09:39:10.138Z,79.70
2019-03-04T09:41:41.356Z,80.10
2019-03-04T09:44:11.998Z,79.90
2019-03-04T09:46:42.818Z,80.80
2019-03-04T09:49:13.384Z,79.80
2019-03-04T09:51:44.154Z,79.60
2019-03-04T09:54:14.901Z,80.00
2019-03-04T09:56:45.661Z,80.10
2019-03-04T09:59:16.468Z,79.40
2019-03-04T10:01:54.185Z,80.20
2019-03-04T10:05:01.015Z,79.40
2019-03-04T10:07:52.480Z,79.60
2019-03-04T10:11:10.319Z,79.00
2019-03-04T10:14:06.927Z,77.70
2019-03-04T10:17:30.943Z,78.20
2019-03-04T10:20:47.706Z,78.00
2019-03-04T10:24:06.577Z,78.20
2019-03-04T10:27:26.706Z,77.60
2019-03-04T10:30:29.799Z,77.30
2019-03-04T10:33:53.166Z,76.80
2019-03-04T10:36:41.136Z,76.80
2019-03-04T10:40:01.706Z,76.00
2019-03-04T10:43:17.786Z,74.70
2019-03-04T10:46:17.002Z,73.50
2019-03-04T10:48:47.972Z,71.70
2019-03-04T10:51:18.837Z,69.60
2019-03-04T10:53:49.682Z,69.70
2019-03-04T10:56:20.541Z,65.70
2019-03-04T10:58:51.414Z,64.00
2019-03-04T11:01:30.202Z,66.60
2019-03-04T11:03:57.057Z,63.80
2019-03-04T11:06:28.040Z,64.60
2019-03-04T11:08:59.106Z,66.40
2019-03-04T11:11:30.332Z,73.40
2019-03-04T11:14:01.375Z,78.90
2019-03-04T11:16:32.353Z,82.60
2019-03-04T11:19:03.357Z,83.10
2019-03-04T11:21:34.225Z,85.20
2019-03-04T11:24:06.225Z,84.90
2019-03-04T11:26:37.317Z,85.90
2019-03-04T11:29:09.944Z,85.20
2019-03-04T11:31:40.957Z,85.30
2019-03-04T11:34:11.775Z,87.20
2019-03-04T11:36:42.881Z,88.30
2019-03-04T11:39:36.655Z,87.50
2019-03-04T11:42:07.629Z,86.20
2019-03-04T11:44:38.605Z,86.50
2019-03-04T11:47:09.602Z,87.70
2019-03-04T11:49:40.617Z,86.90
2019-03-04T11:52:11.630Z,87.50
2019-03-04T11:54:42.629Z,87.80
2019-03-04T11:57:15.272Z,86.10
2019-03-04T11:59:46.089Z,86.80
2019-03-04T12:02:19.885Z,87.30
2019-03-04T12:04:50.869Z,87.50
2019-03-04T12:07:21.821Z,88.00
2019-03-04T12:09:52.902Z,87.00
2019-03-04T12:12:23.917Z,86.50
2019-03-04T12:14:54.880Z,87.00
2019-03-04T12:17:25.718Z,86.70
2019-03-04T12:19:56.785Z,86.60
2019-03-04T12:22:27.752Z,85.50
2019-03-04T12:24:58.757Z,84.90
2019-03-04T12:27:29.657Z,85.40
2019-03-04T12:30:00.658Z,87.00
2019-03-04T12:32:34.052Z,85.60
2019-03-04T12:35:06.314Z,83.50
2019-03-04T12:37:37.112Z,80.80
2019-03-04T12:40:09.204Z,83.00
2019-03-04T12:42:40.208Z,82.60
2019-03-04T12:45:13.238Z,81.90
2019-03-04T12:47:44.205Z,83.30
2019-03-04T12:50:22.917Z,81.90
2019-03-04T12:52:53.861Z,81.50
2019-03-04T12:55:26.403Z,79.40
2019-03-04T12:57:58.625Z,78.80
2019-03-04T13:00:29.945Z,77.80
2019-03-04T13:03:01.024Z,78.20
2019-03-04T13:05:31.980Z,75.50
2019-03-04T13:08:02.770Z,75.60
2019-03-04T13:10:33.977Z,74.50
2019-03-04T13:13:06.554Z,74.70
2019-03-04T13:15:37.609Z,75.20
2019-03-04T13:18:08.689Z,75.20
2019-03-04T13:22:20.617Z,74.50
2019-03-04T13:24:51.409Z,71.80
2019-03-04T13:27:23.973Z,73.20
2019-03-04T13:29:54.701Z,73.00
2019-03-04T13:32:25.420Z,72.60
2019-03-04T13:34:56.358Z,71.40
2019-03-04T13:37:27.309Z,69.30
2019-03-04T13:39:58.165Z,70.40
2019-03-04T13:42:30.202Z,70.50
2019-03-04T13:45:01.201Z,69.10
2019-03-04T13:47:33.193Z,68.30
2019-03-04T13:50:04.101Z,67.90
2019-03-04T13:52:34.944Z,68.10
2019-03-04T13:55:05.703Z,67.50
2019-03-04T13:57:38.038Z,67.70
2019-03-04T14:00:12.246Z,66.10
2019-03-04T14:02:43.301Z,66.70
2019-03-04T14:05:14.226Z,66.30
2019-03-04T14:07:45.076Z,68.20
2019-03-04T14:10:17.271Z,68.60
2019-03-04T14:12:48.281Z,68.40
2019-03-04T14:15:27.803Z,67.40
2019-03-04T14:17:58.776Z,68.30
2019-03-04T14:20:29.829Z,67.70
2019-03-04T14:23:00.637Z,65.50
2019-03-04T14:25:31.570Z,66.00
2019-03-04T14:28:02.516Z,63.90
2019-03-04T14:30:33.381Z,62.20
2019-03-04T14:33:04.505Z,61.00
2019-03-04T14:35:35.294Z,60.10
2019-03-04T14:38:06.383Z,58.60
2019-03-04T14:40:37.373Z,59.50
2019-03-04T14:43:08.261Z,58.40
2019-03-04T14:45:39.296Z,59.20
2019-03-04T14:48:10.138Z,58.30
2019-03-04T14:50:41.086Z,58.40
2019-03-04T14:53:13.806Z,58.70
2019-03-04T14:55:44.737Z,59.60
2019-03-04T14:58:15.633Z,60.00
2019-03-04T15:00:49.693Z,58.00
2019-03-04T15:03:23.545Z,59.60
2019-03-04T15:05:53.201Z,59.50
2019-03-04T15:08:25.065Z,59.40
2019-03-04T15:10:55.907Z,59.90
2019-03-04T15:13:26.914Z,59.90
2019-03-04T15:16:02.505Z,59.70
2019-03-04T15:18:30.289Z,59.80
2019-03-04T15:21:01.252Z,59.90
2019-03-04T15:23:32.309Z,58.70
2019-03-04T15:26:03.164Z,60.10
2019-03-04T15:28:35.295Z,61.00
2019-03-04T15:31:06.269Z,60.40
2019-03-04T15:33:37.585Z,61.30
2019-03-04T15:36:08.434Z,60.30
2019-03-04T15:38:39.314Z,73.10
2019-03-04T15:41:10.149Z,86.60
2019-03-04T15:43:41.113Z,90.00
2019-03-04T15:46:12.097Z,91.30
2019-03-04T15:48:42.997Z,91.90
2019-03-04T15:51:15.119Z,91.50
2019-03-04T15:53:46.083Z,91.90
2019-03-04T15:56:17.074Z,91.80
2019-03-04T15:58:48.066Z,91.70
2019-03-04T16:01:19.054Z,91.60
2019-03-04T16:03:49.969Z,92.00
2019-03-04T16:06:20.973Z,92.30
2019-03-04T16:08:51.929Z,92.00
2019-03-04T16:11:23.136Z,91.60
2019-03-04T16:13:56.200Z,91.30
2019-03-04T16:16:26.549Z,91.10
2019-03-04T16:18:58.569Z,91.40
2019-03-04T16:21:29.399Z,91.20
2019-03-04T16:24:00.346Z,91.10
2019-03-04T16:26:31.199Z,90.80
2019-03-04T16:29:02.081Z,90.80
2019-03-04T16:31:33.012Z,90.70
2019-03-04T16:34:03.981Z,90.90
2019-03-04T16:36:34.956Z,90.60
2019-03-04T16:39:06.869Z,90.20
2019-03-04T16:41:38.159Z,90.80
2019-03-04T16:44:08.997Z,90.50
2019-03-04T16:46:39.875Z,90.40
2019-03-04T16:49:10.902Z,90.50
2019-03-04T16:51:42.645Z,90.20
2019-03-04T16:54:13.733Z,90.20
2019-03-04T16:56:44.610Z,90.80
2019-03-04T16:59:15.505Z,90.50
2019-03-04T17:01:46.306Z,90.50
2019-03-04T17:04:17.325Z,90.10
2019-03-04T17:06:48.435Z,90.70
2019-03-04T17:09:20.377Z,90.50
2019-03-04T17:11:51.365Z,90.20
2019-03-04T17:14:24.423Z,90.10
2019-03-04T17:16:56.440Z,90.20
2019-03-04T17:19:27.382Z,90.20
2019-03-04T17:21:59.465Z,89.90
2019-03-04T17:24:30.581Z,90.00
2019-03-04T17:27:01.525Z,89.90
2019-03-04T17:29:32.470Z,89.40
2019-03-04T17:32:04.350Z,89.30
2019-03-04T17:34:35.358Z,90.00
2019-03-04T17:37:06.525Z,89.10
2019-03-04T17:39:37.417Z,88.80
2019-03-04T17:42:08.301Z,89.10
2019-03-04T17:44:40.229Z,88.80
2019-03-04T17:47:11.214Z,89.30
2019-03-04T17:49:42.233Z,88.70
2019-03-04T17:52:14.434Z,88.80
2019-03-04T17:54:45.433Z,88.20
2019-03-04T17:57:16.420Z,88.60
2019-03-04T17:59:47.350Z,88.30
2019-03-04T18:02:18.594Z,89.00
2019-03-04T18:04:49.565Z,87.80
2019-03-04T18:07:20.446Z,88.00
2019-03-04T18:09:51.341Z,87.00
2019-03-04T18:12:22.220Z,87.00
2019-03-04T18:14:53.170Z,88.10
2019-03-04T18:17:24.093Z,86.00
2019-03-04T18:19:54.928Z,86.90
2019-03-04T18:22:26.992Z,86.80
2019-03-04T18:24:57.959Z,86.90
2019-03-04T18:27:37.278Z,86.40
2019-03-04T18:30:26.905Z,85.40
2019-03-04T18:33:41.057Z,85.60
2019-03-04T18:36:24.733Z,84.70
2019-03-04T18:39:37.871Z,84.40
2019-03-04T18:42:36.761Z,83.60
2019-03-04T18:45:32.328Z,83.30
2019-03-04T18:48:27.072Z,83.70
2019-03-04T18:50:58.154Z,83.20
2019-03-04T18:53:29.093Z,82.60
2019-03-04T18:56:00.125Z,82.40
2019-03-04T18:58:31.076Z,82.90
2019-03-04T19:01:03.231Z,81.80
2019-03-04T19:03:34.189Z,82.50
2019-03-04T19:06:05.107Z,81.80
2019-03-04T19:08:36.117Z,81.60
2019-03-04T19:11:08.330Z,81.60
2019-03-04T19:13:39.258Z,81.70
2019-03-04T19:16:10.273Z,81.50
2019-03-04T19:18:41.565Z,81.30
2019-03-04T19:21:13.552Z,80.70
2019-03-04T19:23:45.650Z,80.90
2019-03-04T19:26:16.817Z,80.50
2019-03-04T19:28:47.744Z,79.50
2019-03-04T19:33:32.889Z,80.20
2019-03-04T19:36:03.829Z,79.20
2019-03-04T19:38:34.765Z,78.30
2019-03-04T19:41:05.673Z,78.50
2019-03-04T19:43:37.741Z,78.10
2019-03-04T19:46:08.641Z,78.30
2019-03-04T19:48:39.674Z,78.80
2019-03-04T19:51:10.649Z,79.80
2019-03-04T19:53:41.725Z,77.80
2019-03-04T19:56:12.609Z,77.90
2019-03-04T19:58:44.609Z,77.80
2019-03-04T20:01:15.354Z,78.50
2019-03-04T20:03:46.205Z,77.10
2019-03-04T20:06:18.784Z,78.20
2019-03-04T20:08:49.809Z,76.50
2019-03-04T20:11:20.798Z,76.50
2019-03-04T20:13:51.804Z,75.30
2019-03-04T20:16:22.800Z,76.50
2019-03-04T20:18:53.766Z,77.10
2019-03-04T20:21:24.761Z,76.40
2019-03-04T20:23:55.692Z,76.50
2019-03-04T20:26:26.645Z,74.80
2019-03-04T20:28:57.602Z,75.50
2019-03-04T20:31:28.504Z,76.00
2019-03-04T20:34:00.547Z,75.50
2019-03-04T20:36:31.691Z,74.20
2019-03-04T20:39:04.485Z,76.00
2019-03-04T20:41:37.161Z,75.70
2019-03-04T20:44:08.292Z,75.20
2019-03-04T20:46:39.370Z,74.80
2019-03-04T20:49:10.444Z,74.80
2019-03-04T20:51:41.337Z,74.70
2019-03-04T20:54:12.344Z,74.20
2019-03-04T20:56:43.317Z,73.50
2019-03-04T20:59:14.331Z,74.50
2019-03-04T21:01:45.726Z,74.40
2019-03-04T21:04:16.825Z,72.80
2019-03-04T21:06:47.809Z,73.10
2019-03-04T21:09:19.085Z,73.60
2019-03-04T21:11:50.109Z,73.90
2019-03-04T21:14:21.089Z,72.20
2019-03-04T21:16:52.176Z,72.20
2019-03-04T21:19:23.159Z,72.20
2019-03-04T21:21:54.045Z,71.90
2019-03-04T21:24:25.046Z,72.00
2019-03-04T21:26:56.005Z,71.10
2019-03-04T21:30:04.943Z,71.70
2019-03-04T21:32:57.162Z,71.60
2019-03-04T21:35:55.381Z,71.00
2019-03-04T21:38:31.605Z,71.10
2019-03-04T21:41:09.422Z,70.70
2019-03-04T21:43:45.109Z,69.20
2019-03-04T21:47:00.206Z,70.10
2019-03-04T21:49:33.891Z,68.20
2019-03-04T21:52:37.455Z,68.60
2019-03-04T21:55:12.376Z,69.00
2019-03-04T21:57:46.733Z,68.80
2019-03-04T22:00:20.664Z,70.10
2019-03-04T22:03:16.643Z,68.50
2019-03-04T22:05:50.445Z,68.30
2019-03-04T22:08:20.591Z,68.80
2019-03-04T22:10:51.483Z,68.30
2019-03-04T22:13:22.655Z,69.10
2019-03-04T22:15:53.627Z,69.10
2019-03-04T22:18:24.509Z,69.70
2019-03-04T22:20:55.502Z,68.80
2019-03-04T22:23:26.519Z,69.40
2019-03-04T22:26:01.993Z,69.80
2019-03-04T22:28:30.985Z,69.20
2019-03-04T22:31:01.874Z,69.30
2019-03-04T22:33:32.835Z,70.20
2019-03-04T22:36:03.981Z,69.60
2019-03-04T22:38:34.975Z,69.60
2019-03-04T22:41:05.992Z,69.90
2019-03-04T22:43:37.091Z,69.70
2019-03-04T22:46:08.141Z,70.10
2019-03-04T22:48:39.076Z,69.70
2019-03-04T22:51:10.028Z,70.10
2019-03-04T22:53:40.849Z,70.40
2019-03-04T22:56:11.695Z,71.00
2019-03-04T22:58:42.634Z,71.50
2019-03-04T23:01:48.645Z,72.40
2019-03-04T23:04:25.985Z,73.30
2019-03-04T23:07:23.015Z,73.60
2019-03-04T23:10:13.093Z,74.10
2019-03-04T23:12:54.869Z,74.30
2019-03-04T23:15:27.000Z,74.70
2019-03-04T23:17:58.086Z,75.30
2019-03-04T23:20:29.120Z,75.40
2019-03-04T23:23:00.177Z,76.00
2019-03-04T23:25:30.935Z,75.80
2019-03-04T23:28:01.673Z,76.10
2019-03-04T23:30:32.461Z,76.40
2019-03-04T23:33:03.112Z,76.60
2019-03-04T23:35:33.924Z,76.60
2019-03-04T23:38:04.580Z,76.50
2019-03-04T23:40:35.352Z,76.60
2019-03-04T23:43:06.039Z,76.60
2019-03-04T23:45:37.670Z,76.30
2019-03-04T23:48:08.269Z,76.60
2019-03-04T23:50:39.021Z,76.70
2019-03-04T23:53:10.870Z,76.60
2019-03-04T23:55:41.643Z,76.60
2019-03-04T23:58:12.294Z,76.70
